createdAt,value
2022-11-09T00:01:02.623Z,98484.48
2022-11-09T00:02:05.514Z,98483.11
2022-11-09T00:03:07.910Z,98483.91
2022-11-09T00:04:10.700Z,98487.29
2022-11-09T00:05:12.471Z,98486.52
2022-11-09T00:06:14.785Z,98487.10
2022-11-09T00:07:16.633Z,98483.97
2022-11-09T00:08:18.438Z,98483.48
2022-11-09T00:09:20.492Z,98488.95
2022-11-09T00:10:22.379Z,98487.70
2022-11-09T00:11:24.422Z,98493.23
2022-11-09T00:12:26.160Z,98489.72
2022-11-09T00:13:27.846Z,98493.85
2022-11-09T00:14:29.733Z,98490.24
2022-11-09T00:15:31.480Z,98494.06
2022-11-09T00:16:33.265Z,98495.35
2022-11-09T00:17:34.994Z,98490.65
2022-11-09T00:18:38.629Z,98490.98
2022-11-09T00:19:40.478Z,98493.05
2022-11-09T00:20:47.324Z,98494.18
2022-11-09T00:21:50.302Z,98491.60
2022-11-09T00:22:52.035Z,98491.93
2022-11-09T00:23:53.943Z,98491.04
2022-11-09T00:24:56.322Z,98496.02
2022-11-09T00:26:06.349Z,98489.04
2022-11-09T00:27:08.092Z,98494.61
2022-11-09T00:28:09.824Z,98495.12
2022-11-09T00:29:11.560Z,98488.15
2022-11-09T00:30:13.656Z,98488.46
2022-11-09T00:31:20.758Z,98490.81
2022-11-09T00:32:27.521Z,98487.56
2022-11-09T00:33:30.052Z,98487.34
2022-11-09T00:34:31.828Z,98488.17
2022-11-09T00:35:33.556Z,98487.65
2022-11-09T00:36:37.754Z,98483.52
2022-11-09T00:37:42.636Z,98482.55
2022-11-09T00:38:50.536Z,98483.48
2022-11-09T00:39:52.298Z,98482.90
2022-11-09T00:41:00.999Z,98482.59
2022-11-09T00:42:02.731Z,98481.04
2022-11-09T00:43:05.129Z,98478.73
2022-11-09T00:44:06.922Z,98482.45
2022-11-09T00:45:09.491Z,98478.41
2022-11-09T00:46:11.689Z,98480.27
2022-11-09T00:47:13.657Z,98478.73
2022-11-09T00:48:15.601Z,98482.02
2022-11-09T00:49:17.379Z,98482.05
2022-11-09T00:50:19.396Z,98478.98
2022-11-09T00:51:22.092Z,98475.40
2022-11-09T00:52:23.823Z,98479.13
2022-11-09T00:53:26.713Z,98478.70
2022-11-09T00:54:28.493Z,98478.43
2022-11-09T00:55:30.499Z,98473.72
2022-11-09T00:56:32.589Z,98473.67
2022-11-09T00:57:34.672Z,98475.77
2022-11-09T00:58:38.759Z,98472.59
2022-11-09T00:59:40.720Z,98473.02
2022-11-09T01:00:42.826Z,98471.40
2022-11-09T01:01:44.757Z,98469.98
2022-11-09T01:02:47.043Z,98465.96
2022-11-09T01:03:48.827Z,98463.91
2022-11-09T01:04:50.587Z,98464.56
2022-11-09T01:05:53.760Z,98464.28
2022-11-09T01:06:55.735Z,98465.73
2022-11-09T01:07:57.865Z,98467.41
2022-11-09T01:08:59.592Z,98466.55
2022-11-09T01:10:01.405Z,98469.41
2022-11-09T01:11:08.510Z,98469.26
2022-11-09T01:12:10.257Z,98468.85
2022-11-09T01:13:13.887Z,98462.27
2022-11-09T01:14:15.677Z,98464.83
2022-11-09T01:15:17.550Z,98459.09
2022-11-09T01:16:22.475Z,98465.27
2022-11-09T01:17:24.688Z,98463.05
2022-11-09T01:18:26.522Z,98461.40
2022-11-09T01:19:29.475Z,98461.02
2022-11-09T01:20:31.227Z,98458.27
2022-11-09T01:21:35.007Z,98454.34
2022-11-09T01:22:37.248Z,98454.45
2022-11-09T01:23:40.357Z,98457.25
2022-11-09T01:24:42.415Z,98458.91
2022-11-09T01:25:44.875Z,98457.79
2022-11-09T01:26:46.716Z,98456.61
2022-11-09T01:27:48.452Z,98452.90
2022-11-09T01:28:50.238Z,98458.34
2022-11-09T01:29:51.963Z,98462.89
2022-11-09T01:30:54.620Z,98460.20
2022-11-09T01:31:56.547Z,98456.73
2022-11-09T01:32:58.862Z,98460.70
2022-11-09T01:34:01.002Z,98456.61
2022-11-09T01:35:02.762Z,98455.61
2022-11-09T01:36:09.892Z,98455.34
2022-11-09T01:37:11.694Z,98453.26
2022-11-09T01:38:13.511Z,98453.16
2022-11-09T01:39:15.658Z,98452.39
2022-11-09T01:40:17.744Z,98452.34
2022-11-09T01:41:26.355Z,98449.02
2022-11-09T01:42:29.388Z,98447.64
2022-11-09T01:43:31.347Z,98446.92
2022-11-09T01:44:37.898Z,98447.96
2022-11-09T01:45:46.045Z,98452.38
2022-11-09T01:46:48.152Z,98451.69
2022-11-09T01:48:00.220Z,98454.42
2022-11-09T01:49:12.926Z,98451.58
2022-11-09T01:50:27.477Z,98454.61
2022-11-09T01:52:13.021Z,98450.90
2022-11-09T01:53:21.430Z,98445.73
2022-11-09T01:54:31.801Z,98443.84
2022-11-09T01:55:34.625Z,98442.88
2022-11-09T01:56:37.016Z,98443.84
2022-11-09T01:57:47.105Z,98441.44
2022-11-09T01:59:14.259Z,98434.95
2022-11-09T02:00:17.680Z,98438.66
2022-11-09T02:01:19.797Z,98438.94
2022-11-09T02:02:22.330Z,98433.30
2022-11-09T02:03:42.884Z,98430.02
2022-11-09T02:04:56.478Z,98433.11
2022-11-09T02:06:03.611Z,98430.80
2022-11-09T02:07:07.088Z,98426.50
2022-11-09T02:08:12.715Z,98429.95
2022-11-09T02:10:01.670Z,98429.35
2022-11-09T02:11:10.720Z,98430.95
2022-11-09T02:12:12.585Z,98427.72
2022-11-09T02:13:19.750Z,98429.65
2022-11-09T02:14:26.335Z,98429.33
2022-11-09T02:15:28.861Z,98428.36
2022-11-09T02:16:32.542Z,98430.41
2022-11-09T02:17:35.715Z,98431.75
2022-11-09T02:18:48.852Z,98431.91
2022-11-09T02:19:50.842Z,98434.23
2022-11-09T02:20:55.799Z,98435.04
2022-11-09T02:21:57.967Z,98438.80
2022-11-09T02:22:59.807Z,98434.77
2022-11-09T02:24:02.534Z,98435.95
2022-11-09T02:25:05.669Z,98436.52
2022-11-09T02:26:13.767Z,98435.39
2022-11-09T02:27:15.495Z,98432.62
2022-11-09T02:28:18.259Z,98435.09
2022-11-09T02:29:26.206Z,98441.08
2022-11-09T02:30:28.468Z,98442.54
2022-11-09T02:31:38.480Z,98439.90
2022-11-09T02:32:40.636Z,98437.59
2022-11-09T02:33:51.618Z,98437.65
2022-11-09T02:34:53.545Z,98440.40
2022-11-09T02:35:55.383Z,98439.81
2022-11-09T02:36:57.403Z,98438.70
2022-11-09T02:38:00.350Z,98440.52
2022-11-09T02:39:03.488Z,98440.52
2022-11-09T02:40:14.373Z,98439.77
2022-11-09T02:41:17.516Z,98436.70
2022-11-09T02:42:21.715Z,98438.21
2022-11-09T02:43:25.239Z,98438.27
2022-11-09T02:44:30.169Z,98439.52
2022-11-09T02:45:31.973Z,98439.41
2022-11-09T02:46:37.302Z,98440.59
2022-11-09T02:47:39.456Z,98443.06
2022-11-09T02:48:41.228Z,98443.11
2022-11-09T02:49:43.006Z,98444.98
2022-11-09T02:50:44.763Z,98441.05
2022-11-09T02:51:46.657Z,98443.25
2022-11-09T02:52:48.493Z,98445.88
2022-11-09T02:53:50.643Z,98444.30
2022-11-09T02:54:52.905Z,98442.32
2022-11-09T02:55:54.650Z,98441.70
2022-11-09T02:56:56.491Z,98444.92
2022-11-09T02:57:58.335Z,98441.69
2022-11-09T02:59:00.173Z,98441.29
2022-11-09T03:00:03.219Z,98440.80
2022-11-09T03:01:08.116Z,98442.79
2022-11-09T03:02:13.270Z,98441.70
2022-11-09T03:03:15.675Z,98445.94
2022-11-09T03:04:17.981Z,98445.16
2022-11-09T03:05:20.643Z,98444.46
2022-11-09T03:06:34.348Z,98443.52
2022-11-09T03:07:37.955Z,98445.63
2022-11-09T03:08:39.781Z,98444.23
2022-11-09T03:09:41.631Z,98441.54
2022-11-09T03:10:43.400Z,98440.71
2022-11-09T03:11:45.554Z,98443.23
2022-11-09T03:12:48.695Z,98444.92
2022-11-09T03:13:50.463Z,98442.65
2022-11-09T03:14:52.496Z,98442.22
2022-11-09T03:15:54.731Z,98439.89
2022-11-09T03:16:56.632Z,98441.45
2022-11-09T03:17:59.640Z,98443.50
2022-11-09T03:19:01.416Z,98444.61
2022-11-09T03:20:04.234Z,98443.27
2022-11-09T03:21:07.184Z,98441.86
2022-11-09T03:22:08.979Z,98442.56
2022-11-09T03:23:11.551Z,98441.77
2022-11-09T03:24:13.681Z,98442.78
2022-11-09T03:25:15.982Z,98440.84
2022-11-09T03:26:18.025Z,98442.00
2022-11-09T03:27:19.812Z,98444.15
2022-11-09T03:28:22.383Z,98440.13
2022-11-09T03:29:25.419Z,98440.71
2022-11-09T03:30:27.961Z,98441.64
2022-11-09T03:31:30.075Z,98441.10
2022-11-09T03:32:31.968Z,98440.61
2022-11-09T03:33:35.034Z,98442.48
2022-11-09T03:34:36.914Z,98441.73
2022-11-09T03:35:38.895Z,98439.58
2022-11-09T03:36:41.072Z,98439.67
2022-11-09T03:37:42.875Z,98443.13
2022-11-09T03:38:44.680Z,98442.75
2022-11-09T03:39:46.619Z,98443.13
2022-11-09T03:40:48.520Z,98442.73
2022-11-09T03:41:50.743Z,98443.43
2022-11-09T03:42:52.514Z,98440.21
2022-11-09T03:43:54.463Z,98438.48
2022-11-09T03:44:56.184Z,98433.45
2022-11-09T03:45:58.112Z,98432.59
2022-11-09T03:46:59.871Z,98429.80
2022-11-09T03:48:01.749Z,98429.95
2022-11-09T03:49:03.520Z,98426.30
2022-11-09T03:50:05.632Z,98424.39
2022-11-09T03:51:07.351Z,98422.52
2022-11-09T03:52:09.141Z,98423.09
2022-11-09T03:53:12.018Z,98421.67
2022-11-09T03:54:13.786Z,98422.17
2022-11-09T03:55:15.782Z,98423.78
2022-11-09T03:56:18.084Z,98426.89
2022-11-09T03:57:19.852Z,98427.14
2022-11-09T03:58:21.592Z,98424.48
2022-11-09T03:59:23.362Z,98426.74
2022-11-09T04:00:25.189Z,98426.64
2022-11-09T04:01:26.985Z,98425.12
2022-11-09T04:02:28.714Z,98424.42
2022-11-09T04:03:30.463Z,98426.54
2022-11-09T04:04:32.187Z,98425.84
2022-11-09T04:05:33.953Z,98425.20
2022-11-09T04:06:36.061Z,98425.56
2022-11-09T04:07:38.862Z,98423.36
2022-11-09T04:08:40.616Z,98423.36
2022-11-09T04:09:42.342Z,98425.35
2022-11-09T04:10:44.623Z,98421.42
2022-11-09T04:11:46.388Z,98424.27
2022-11-09T04:12:48.239Z,98417.86
2022-11-09T04:13:50.008Z,98417.27
2022-11-09T04:14:51.784Z,98416.20
2022-11-09T04:15:53.762Z,98415.77
2022-11-09T04:16:55.507Z,98416.66
2022-11-09T04:17:59.377Z,98417.85
2022-11-09T04:19:01.205Z,98413.39
2022-11-09T04:20:03.539Z,98411.02
2022-11-09T04:21:05.558Z,98412.89
2022-11-09T04:22:07.456Z,98415.25
2022-11-09T04:23:12.485Z,98417.23
2022-11-09T04:24:14.489Z,98410.83
2022-11-09T04:25:16.317Z,98417.41
2022-11-09T04:26:18.087Z,98416.43
2022-11-09T04:27:19.810Z,98413.14
2022-11-09T04:28:21.554Z,98415.66
2022-11-09T04:29:23.352Z,98420.19
2022-11-09T04:30:30.455Z,98422.89
2022-11-09T04:31:32.423Z,98419.52
2022-11-09T04:32:34.217Z,98417.48
2022-11-09T04:33:35.937Z,98416.76
2022-11-09T04:34:37.992Z,98422.14
2022-11-09T04:35:39.759Z,98416.77
2022-11-09T04:36:41.724Z,98413.09
2022-11-09T04:37:43.985Z,98414.92
2022-11-09T04:38:46.082Z,98413.41
2022-11-09T04:39:47.845Z,98410.30
2022-11-09T04:40:49.678Z,98409.77
2022-11-09T04:41:51.589Z,98411.65
2022-11-09T04:42:53.747Z,98410.09
2022-11-09T04:43:55.557Z,98408.17
2022-11-09T04:44:57.276Z,98408.59
2022-11-09T04:46:03.399Z,98409.19
2022-11-09T04:47:05.267Z,98409.95
2022-11-09T04:48:09.908Z,98407.85
2022-11-09T04:49:11.681Z,98411.19
2022-11-09T04:50:13.902Z,98413.30
2022-11-09T04:51:15.675Z,98407.98
2022-11-09T04:52:17.600Z,98412.14
2022-11-09T04:53:19.394Z,98413.42
2022-11-09T04:54:21.145Z,98413.06
2022-11-09T04:55:22.890Z,98410.20
2022-11-09T04:56:24.639Z,98414.08
2022-11-09T04:57:26.592Z,98408.98
2022-11-09T04:58:28.355Z,98410.64
2022-11-09T04:59:30.189Z,98411.44
2022-11-09T05:00:32.393Z,98409.61
2022-11-09T05:01:34.165Z,98412.89
2022-11-09T05:02:36.254Z,98410.36
2022-11-09T05:03:38.580Z,98407.56
2022-11-09T05:04:40.604Z,98409.72
2022-11-09T05:05:47.957Z,98410.21
2022-11-09T05:06:50.244Z,98408.92
2022-11-09T05:07:52.231Z,98408.48
2022-11-09T05:08:55.491Z,98405.11
2022-11-09T05:09:57.225Z,98401.88
2022-11-09T05:10:58.959Z,98397.73
2022-11-09T05:12:00.708Z,98398.77
2022-11-09T05:13:08.609Z,98400.24
2022-11-09T05:14:10.348Z,98399.65
2022-11-09T05:15:12.136Z,98398.45
2022-11-09T05:16:14.469Z,98401.08
2022-11-09T05:17:16.497Z,98405.30
2022-11-09T05:18:18.228Z,98404.45
2022-11-09T05:19:19.954Z,98407.44
2022-11-09T05:20:21.776Z,98408.30
2022-11-09T05:21:23.582Z,98407.48
2022-11-09T05:22:43.812Z,98410.51
2022-11-09T05:24:00.847Z,98408.61
2022-11-09T05:25:02.834Z,98408.30
2022-11-09T05:26:04.640Z,98410.75
2022-11-09T05:27:06.363Z,98410.60
2022-11-09T05:28:09.701Z,98407.01
2022-11-09T05:29:13.363Z,98406.20
2022-11-09T05:30:15.464Z,98405.72
2022-11-09T05:31:17.192Z,98409.65
2022-11-09T05:32:18.922Z,98405.04
2022-11-09T05:33:20.945Z,98402.98
2022-11-09T05:34:22.945Z,98405.29
2022-11-09T05:35:25.229Z,98407.33
2022-11-09T05:36:28.511Z,98406.02
2022-11-09T05:37:30.222Z,98413.99
2022-11-09T05:38:32.554Z,98417.11
2022-11-09T05:39:34.356Z,98415.02
2022-11-09T05:40:36.128Z,98415.71
2022-11-09T05:41:37.922Z,98415.12
2022-11-09T05:42:41.046Z,98412.44
2022-11-09T05:43:44.878Z,98408.84
2022-11-09T05:44:46.643Z,98414.36
2022-11-09T05:45:48.464Z,98415.12
2022-11-09T05:46:50.304Z,98408.09
2022-11-09T05:47:52.336Z,98409.97
2022-11-09T05:48:54.239Z,98411.09
2022-11-09T05:49:55.972Z,98412.48
2022-11-09T05:51:02.419Z,98415.56
2022-11-09T05:52:04.271Z,98416.86
2022-11-09T05:53:06.126Z,98418.10
2022-11-09T05:54:09.501Z,98415.95
2022-11-09T05:55:11.334Z,98422.41
2022-11-09T05:56:14.660Z,98415.70
2022-11-09T05:57:16.382Z,98412.41
2022-11-09T05:58:18.115Z,98413.61
2022-11-09T05:59:19.910Z,98413.55
2022-11-09T06:00:23.007Z,98409.41
2022-11-09T06:01:24.992Z,98408.45
2022-11-09T06:02:31.169Z,98410.50
2022-11-09T06:03:33.168Z,98414.42
2022-11-09T06:04:34.970Z,98416.14
2022-11-09T06:05:39.039Z,98417.83
2022-11-09T06:06:40.810Z,98420.31
2022-11-09T06:07:43.108Z,98420.09
2022-11-09T06:08:44.958Z,98419.30
2022-11-09T06:09:47.243Z,98416.31
2022-11-09T06:10:49.044Z,98419.96
2022-11-09T06:11:50.932Z,98423.04
2022-11-09T06:12:52.680Z,98419.73
2022-11-09T06:13:54.837Z,98419.95
2022-11-09T06:14:56.730Z,98421.74
2022-11-09T06:16:05.124Z,98420.52
2022-11-09T06:17:06.829Z,98421.45
2022-11-09T06:18:08.621Z,98421.55
2022-11-09T06:19:10.441Z,98419.50
2022-11-09T06:20:12.409Z,98422.08
2022-11-09T06:21:14.419Z,98423.91
2022-11-09T06:22:16.328Z,98421.27
2022-11-09T06:23:18.306Z,98416.14
2022-11-09T06:24:20.280Z,98417.23
2022-11-09T06:25:22.450Z,98419.38
2022-11-09T06:26:24.180Z,98419.45
2022-11-09T06:27:26.430Z,98415.38
2022-11-09T06:28:29.332Z,98413.14
2022-11-09T06:29:31.078Z,98416.63
2022-11-09T06:30:32.974Z,98417.23
2022-11-09T06:31:34.758Z,98415.96
2022-11-09T06:32:36.475Z,98415.49
2022-11-09T06:33:38.248Z,98419.85
2022-11-09T06:34:39.989Z,98419.30
2022-11-09T06:35:42.085Z,98423.08
2022-11-09T06:36:44.322Z,98419.64
2022-11-09T06:37:46.075Z,98418.03
2022-11-09T06:38:52.275Z,98419.75
2022-11-09T06:39:53.993Z,98417.11
2022-11-09T06:40:58.610Z,98417.00
2022-11-09T06:42:00.822Z,98414.60
2022-11-09T06:43:04.148Z,98417.67
2022-11-09T06:44:06.494Z,98418.77
2022-11-09T06:45:08.901Z,98417.64
2022-11-09T06:46:11.655Z,98419.79
2022-11-09T06:47:13.426Z,98412.70
2022-11-09T06:48:15.409Z,98415.98
2022-11-09T06:49:17.279Z,98415.56
2022-11-09T06:50:19.085Z,98413.61
2022-11-09T06:51:20.861Z,98413.16
2022-11-09T06:52:23.526Z,98413.27
2022-11-09T06:53:27.744Z,98415.74
2022-11-09T06:54:29.473Z,98414.56
2022-11-09T06:55:33.398Z,98413.66
2022-11-09T06:56:35.121Z,98416.09
2022-11-09T06:57:37.177Z,98417.50
2022-11-09T06:58:39.031Z,98412.73
2022-11-09T06:59:40.781Z,98415.31
2022-11-09T07:00:46.213Z,98418.73
2022-11-09T07:01:48.029Z,98413.69
2022-11-09T07:02:50.561Z,98416.61
2022-11-09T07:03:52.280Z,98416.29
2022-11-09T07:04:54.220Z,98419.37
2022-11-09T07:05:55.956Z,98419.85
2022-11-09T07:06:57.788Z,98419.34
2022-11-09T07:07:59.588Z,98418.97
2022-11-09T07:09:01.333Z,98418.71
2022-11-09T07:10:04.488Z,98415.97
2022-11-09T07:11:09.496Z,98416.53
2022-11-09T07:12:11.257Z,98417.09
2022-11-09T07:13:13.234Z,98415.47
2022-11-09T07:14:15.048Z,98411.27
2022-11-09T07:15:18.496Z,98413.88
2022-11-09T07:16:20.409Z,98419.80
2022-11-09T07:17:22.156Z,98417.33
2022-11-09T07:18:24.033Z,98421.42
2022-11-09T07:19:25.773Z,98419.50
2022-11-09T07:20:28.711Z,98422.56
2022-11-09T07:21:30.445Z,98422.56
2022-11-09T07:22:34.922Z,98426.05
2022-11-09T07:23:36.719Z,98421.54
2022-11-09T07:24:38.503Z,98424.94
2022-11-09T07:25:40.244Z,98425.11
2022-11-09T07:26:41.996Z,98424.58
2022-11-09T07:27:43.905Z,98424.61
2022-11-09T07:28:45.634Z,98421.92
2022-11-09T07:29:47.365Z,98423.45
2022-11-09T07:30:51.840Z,98421.95
2022-11-09T07:31:53.581Z,98423.63
2022-11-09T07:33:09.243Z,98419.35
2022-11-09T07:34:11.928Z,98420.67
2022-11-09T07:35:13.664Z,98413.66
2022-11-09T07:36:19.922Z,98416.39
2022-11-09T07:37:23.236Z,98414.13
2022-11-09T07:38:25.319Z,98415.70
2022-11-09T07:39:27.235Z,98413.31
2022-11-09T07:40:30.003Z,98413.26
2022-11-09T07:41:34.651Z,98414.77
2022-11-09T07:42:36.926Z,98418.49
2022-11-09T07:43:38.686Z,98417.21
2022-11-09T07:44:40.443Z,98413.67
2022-11-09T07:45:42.376Z,98416.47
2022-11-09T07:46:48.622Z,98415.57
2022-11-09T07:47:58.503Z,98417.86
2022-11-09T07:49:00.214Z,98418.38
2022-11-09T07:50:01.991Z,98415.91
2022-11-09T07:51:03.814Z,98420.12
2022-11-09T07:52:05.650Z,98416.65
2022-11-09T07:53:09.217Z,98415.69
2022-11-09T07:54:11.656Z,98415.31
2022-11-09T07:55:13.403Z,98414.63
2022-11-09T07:56:15.167Z,98412.76
2022-11-09T07:57:16.932Z,98413.52
2022-11-09T07:58:19.036Z,98412.08
2022-11-09T07:59:20.970Z,98412.04
2022-11-09T08:00:23.894Z,98416.41
2022-11-09T08:01:25.774Z,98413.53
2022-11-09T08:02:27.585Z,98405.95
2022-11-09T08:03:29.516Z,98404.56
2022-11-09T08:04:31.238Z,98401.35
2022-11-09T08:05:34.023Z,98402.98
2022-11-09T08:06:35.806Z,98399.59
2022-11-09T08:07:37.565Z,98400.02
2022-11-09T08:08:40.288Z,98401.76
2022-11-09T08:09:41.981Z,98401.86
2022-11-09T08:10:51.251Z,98407.95
2022-11-09T08:11:52.980Z,98413.33
2022-11-09T08:13:00.017Z,98413.39
2022-11-09T08:14:01.781Z,98413.82
2022-11-09T08:15:04.994Z,98410.11
2022-11-09T08:16:06.999Z,98409.84
2022-11-09T08:17:08.906Z,98411.89
2022-11-09T08:18:15.229Z,98405.38
2022-11-09T08:19:17.023Z,98405.76
2022-11-09T08:20:20.088Z,98404.36
2022-11-09T08:21:21.875Z,98405.39
2022-11-09T08:22:23.911Z,98406.26
2022-11-09T08:23:25.607Z,98406.64
2022-11-09T08:24:27.427Z,98408.77
2022-11-09T08:25:29.608Z,98409.39
2022-11-09T08:26:31.847Z,98409.97
2022-11-09T08:27:39.956Z,98411.81
2022-11-09T08:28:41.784Z,98409.83
2022-11-09T08:29:43.721Z,98411.48
2022-11-09T08:30:46.813Z,98409.83
2022-11-09T08:31:51.735Z,98411.94
2022-11-09T08:32:53.481Z,98411.13
2022-11-09T08:33:55.288Z,98405.23
2022-11-09T08:34:57.122Z,98404.00
2022-11-09T08:35:59.085Z,98404.44
2022-11-09T08:37:00.899Z,98408.31
2022-11-09T08:38:05.235Z,98414.14
2022-11-09T08:39:06.991Z,98414.18
2022-11-09T08:40:09.500Z,98414.46
2022-11-09T08:41:13.818Z,98417.91
2022-11-09T08:42:15.775Z,98418.94
2022-11-09T08:43:17.495Z,98422.55
2022-11-09T08:44:19.368Z,98420.70
2022-11-09T08:45:21.727Z,98418.39
2022-11-09T08:46:23.524Z,98426.09
2022-11-09T08:47:25.279Z,98421.19
2022-11-09T08:48:27.071Z,98419.19
2022-11-09T08:49:28.811Z,98423.73
2022-11-09T08:50:33.775Z,98423.28
2022-11-09T08:51:35.672Z,98423.98
2022-11-09T08:52:37.527Z,98425.02
2022-11-09T08:53:39.262Z,98423.61
2022-11-09T08:54:41.033Z,98428.63
2022-11-09T08:55:48.420Z,98429.11
2022-11-09T08:56:51.204Z,98426.52
2022-11-09T08:57:54.938Z,98427.11
2022-11-09T08:58:56.656Z,98425.54
2022-11-09T08:59:58.537Z,98428.13
2022-11-09T09:01:00.353Z,98428.67
2022-11-09T09:02:02.158Z,98431.63
2022-11-09T09:03:06.032Z,98430.17
2022-11-09T09:04:07.744Z,98429.25
2022-11-09T09:05:09.729Z,98427.48
2022-11-09T09:06:11.695Z,98431.73
2022-11-09T09:07:14.262Z,98433.29
2022-11-09T09:08:16.339Z,98434.75
2022-11-09T09:09:18.082Z,98433.28
2022-11-09T09:10:19.829Z,98436.36
2022-11-09T09:11:21.702Z,98436.25
2022-11-09T09:12:23.883Z,98435.88
2022-11-09T09:13:25.644Z,98435.27
2022-11-09T09:14:27.360Z,98434.04
2022-11-09T09:15:29.369Z,98434.41
2022-11-09T09:16:31.337Z,98436.94
2022-11-09T09:17:35.421Z,98437.52
2022-11-09T09:18:37.503Z,98434.66
2022-11-09T09:19:39.307Z,98438.27
2022-11-09T09:20:41.316Z,98432.68
2022-11-09T09:21:43.087Z,98432.52
2022-11-09T09:22:44.873Z,98430.35
2022-11-09T09:23:50.561Z,98436.29
2022-11-09T09:24:52.314Z,98433.20
2022-11-09T09:25:57.692Z,98433.28
2022-11-09T09:27:00.587Z,98436.62
2022-11-09T09:28:02.331Z,98428.45
2022-11-09T09:29:04.070Z,98427.30
2022-11-09T09:30:06.484Z,98423.33
2022-11-09T09:31:08.245Z,98425.80
2022-11-09T09:32:10.005Z,98427.13
2022-11-09T09:33:12.748Z,98432.60
2022-11-09T09:34:15.244Z,98430.25
2022-11-09T09:35:17.567Z,98433.02
2022-11-09T09:36:22.992Z,98431.39
2022-11-09T09:37:24.964Z,98435.27
2022-11-09T09:38:29.575Z,98432.99
2022-11-09T09:39:31.393Z,98435.15
2022-11-09T09:40:51.130Z,98431.34
2022-11-09T09:41:56.593Z,98431.30
2022-11-09T09:42:58.545Z,98429.40
2022-11-09T09:44:07.625Z,98431.61
2022-11-09T09:45:23.654Z,98438.30
2022-11-09T09:46:43.604Z,98435.14
2022-11-09T09:48:27.721Z,98434.67
2022-11-09T09:49:34.808Z,98433.35
2022-11-09T09:50:46.602Z,98430.40
2022-11-09T09:51:57.483Z,98424.00
2022-11-09T09:53:24.864Z,98423.96
2022-11-09T09:54:34.954Z,98421.73
2022-11-09T09:55:41.797Z,98416.90
2022-11-09T09:56:48.917Z,98419.05
2022-11-09T09:57:56.989Z,98419.27
2022-11-09T09:59:19.487Z,98415.91
2022-11-09T10:00:25.806Z,98415.78
2022-11-09T10:01:38.815Z,98414.52
2022-11-09T10:02:40.995Z,98412.83
2022-11-09T10:03:43.293Z,98416.06
2022-11-09T10:04:45.345Z,98420.36
2022-11-09T10:06:21.693Z,98423.52
2022-11-09T10:07:47.989Z,98424.88
2022-11-09T10:09:14.274Z,98427.01
2022-11-09T10:10:36.923Z,98425.12
2022-11-09T10:12:03.575Z,98426.15
2022-11-09T10:13:17.504Z,98420.60
2022-11-09T10:14:38.813Z,98421.59
2022-11-09T10:15:55.330Z,98418.08
2022-11-09T10:17:19.747Z,98418.27
2022-11-09T10:18:44.802Z,98414.48
2022-11-09T10:20:08.694Z,98410.16
2022-11-09T10:21:13.283Z,98410.52
2022-11-09T10:22:37.110Z,98406.90
2022-11-09T10:24:08.911Z,98406.36
2022-11-09T10:25:50.163Z,98403.81
2022-11-09T10:26:52.079Z,98405.11
2022-11-09T10:28:02.063Z,98409.55
2022-11-09T10:29:34.893Z,98412.52
2022-11-09T10:30:36.758Z,98413.73
2022-11-09T10:31:41.548Z,98408.76
2022-11-09T10:32:54.465Z,98409.27
2022-11-09T10:34:03.103Z,98412.00
2022-11-09T10:35:17.164Z,98408.16
2022-11-09T10:36:37.573Z,98409.24
2022-11-09T10:37:46.530Z,98410.45
2022-11-09T10:38:52.058Z,98410.31
2022-11-09T10:40:25.465Z,98408.16
2022-11-09T10:41:48.453Z,98411.32
2022-11-09T10:43:13.993Z,98408.86
2022-11-09T10:44:34.221Z,98410.38
2022-11-09T10:46:00.864Z,98412.19
2022-11-09T10:47:22.580Z,98412.08
2022-11-09T10:48:43.184Z,98411.45
2022-11-09T10:50:24.851Z,98406.91
2022-11-09T10:51:48.462Z,98407.59
2022-11-09T10:53:23.484Z,98407.50
2022-11-09T10:54:43.615Z,98405.42
2022-11-09T10:56:04.121Z,98404.08
2022-11-09T10:57:25.300Z,98401.13
2022-11-09T10:58:51.439Z,98406.65
2022-11-09T11:00:18.009Z,98407.21
2022-11-09T11:01:38.483Z,98414.96
2022-11-09T11:03:11.013Z,98419.37
2022-11-09T11:04:31.352Z,98424.17
2022-11-09T11:06:01.111Z,98428.36
2022-11-09T11:07:22.827Z,98425.22
2022-11-09T11:08:47.000Z,98426.61
2022-11-09T11:10:16.533Z,98424.40
2022-11-09T11:11:39.193Z,98427.23
2022-11-09T11:13:05.335Z,98423.05
2022-11-09T11:14:33.098Z,98427.39
2022-11-09T11:15:53.628Z,98428.35
2022-11-09T11:17:27.046Z,98429.41
2022-11-09T11:18:48.126Z,98431.90
2022-11-09T11:20:27.755Z,98431.33
2022-11-09T11:22:19.707Z,98429.86
2022-11-09T11:23:39.922Z,98430.13
2022-11-09T11:25:03.051Z,98430.56
2022-11-09T11:26:27.205Z,98428.70
2022-11-09T11:28:06.260Z,98429.71
2022-11-09T11:29:37.684Z,98426.09
2022-11-09T11:30:58.149Z,98436.36
2022-11-09T11:32:20.611Z,98437.48
2022-11-09T11:33:41.962Z,98433.84
2022-11-09T11:35:15.383Z,98433.55
2022-11-09T11:36:58.752Z,98435.17
2022-11-09T11:38:38.460Z,98435.30
2022-11-09T11:40:06.275Z,98440.63
2022-11-09T11:41:36.130Z,98435.99
2022-11-09T11:43:08.171Z,98434.63
2022-11-09T11:44:54.836Z,98434.27
2022-11-09T11:46:47.264Z,98429.87
2022-11-09T11:48:16.384Z,98435.55
2022-11-09T11:50:00.497Z,98432.55
2022-11-09T11:51:53.981Z,98430.41
2022-11-09T11:53:43.073Z,98431.95
2022-11-09T11:55:47.376Z,98429.87
2022-11-09T11:57:21.897Z,98426.70
2022-11-09T11:58:52.842Z,98428.29
2022-11-09T12:00:19.478Z,98424.89
2022-11-09T12:02:19.162Z,98423.38
2022-11-09T12:03:52.331Z,98424.80
2022-11-09T12:05:43.032Z,98419.10
2022-11-09T12:07:06.016Z,98427.23
2022-11-09T12:08:41.547Z,98421.27
2022-11-09T12:10:14.144Z,98423.21
2022-11-09T12:12:03.592Z,98419.56
2022-11-09T12:13:49.619Z,98424.17
2022-11-09T12:15:38.192Z,98422.39
2022-11-09T12:17:15.457Z,98424.27
2022-11-09T12:18:49.243Z,98423.69
2022-11-09T12:20:31.741Z,98417.18
2022-11-09T12:22:34.357Z,98417.09
2022-11-09T12:24:09.015Z,98421.81
2022-11-09T12:25:35.513Z,98421.14
2022-11-09T12:27:32.845Z,98419.20
2022-11-09T12:29:19.775Z,98424.80
2022-11-09T12:31:07.198Z,98424.63
2022-11-09T12:33:01.516Z,98423.27
2022-11-09T12:34:53.770Z,98424.05
2022-11-09T12:36:21.752Z,98422.42
2022-11-09T12:37:55.925Z,98421.50
2022-11-09T12:39:27.628Z,98417.05
2022-11-09T12:40:55.176Z,98415.36
2022-11-09T12:42:22.275Z,98413.09
2022-11-09T12:44:14.477Z,98416.68
2022-11-09T12:45:41.483Z,98409.23
2022-11-09T12:47:15.763Z,98406.98
2022-11-09T12:48:35.904Z,98405.16
2022-11-09T12:49:56.517Z,98403.41
2022-11-09T12:51:18.573Z,98407.41
2022-11-09T12:52:39.923Z,98405.02
2022-11-09T12:54:11.233Z,98399.80
2022-11-09T12:55:44.323Z,98403.65
2022-11-09T12:57:10.089Z,98400.15
2022-11-09T12:58:33.264Z,98403.14
2022-11-09T12:59:56.507Z,98406.70
2022-11-09T13:01:35.181Z,98404.45
2022-11-09T13:03:02.714Z,98408.77
2022-11-09T13:04:25.094Z,98404.99
2022-11-09T13:05:47.600Z,98403.91
2022-11-09T13:07:13.998Z,98405.86
2022-11-09T13:08:37.041Z,98402.56
2022-11-09T13:10:02.122Z,98399.36
2022-11-09T13:11:41.047Z,98398.30
2022-11-09T13:13:22.979Z,98402.29
2022-11-09T13:14:44.873Z,98404.58
2022-11-09T13:16:11.907Z,98407.45
2022-11-09T13:17:33.780Z,98407.14
2022-11-09T13:18:54.359Z,98414.20
2022-11-09T13:22:17.022Z,98420.92
2022-11-09T13:25:51.205Z,98418.11
2022-11-09T13:27:41.893Z,98422.52